ADDS METAR Data INFO
IDs: Format: Raw Decoded Include TAF

Data at: 2316 UTC 15 Jul 2018

KPRG 152255Z AUTO 15005KT 10SM SCT030 BKN036 BKN043 29/24 A2996 RMK AO2 LTG DSNT SW T02900238
KPRG 152235Z AUTO 16006KT 10SM SCT028 SCT045 SCT055 29/23 A2996 RMK AO2 T02850232
KPRG 152215Z AUTO 20008KT 10SM SCT028 SCT039 SCT045 29/23 A2997 RMK AO2 T02900231
KPRG 152155Z AUTO 19005KT 10SM SCT028 SCT035 BKN043 29/23 A2997 RMK AO2 T02890233
KPRG 152135Z AUTO 19007KT 10SM SCT028 SCT035 BKN045 29/23 A2997 RMK AO2 T02940232
KPRG 152115Z AUTO 20006KT 10SM SCT032 BKN039 OVC050 30/24 A2998 RMK AO2 T02980237
KPRG 152055Z AUTO 20007KT 10SM SCT032 BKN039 BKN050 30/24 A2998 RMK AO2 T02950237
KPRG 152035Z AUTO 22006KT 10SM SCT030 SCT065 SCT085 29/23 A2999 RMK AO2 T02930231
KPRG 152015Z AUTO 19004KT 10SM SCT065 BKN085 29/23 A2999 RMK AO2 T02870231
KPRG 151955Z AUTO 20004KT 10SM SCT047 BKN055 OVC065 28/23 A3000 RMK AO2 T02750228
KPRG 151935Z AUTO 24005KT 10SM SCT024 SCT042 OVC048 27/22 A3001 RMK AO2 T02720221
KPRG 151915Z AUTO 19006KT 10SM SCT025 BKN033 OVC046 28/23 A3001 RMK AO2 T02760231
KPRG 151855Z AUTO 20004KT 10SM -DZ SCT023 BKN033 OVC040 27/23 A3001 RMK AO2 T02670231
KPRG 151835Z AUTO 20005KT 10SM SCT022 BKN038 OVC050 28/23 A3001 RMK AO2 T02780231
KPRG 151815Z AUTO 22005KT 10SM SCT022 SCT026 BKN055 29/23 A3002 RMK AO2 T02850228
KPRG 151755Z AUTO 19006KT 10SM SCT022 OVC065 29/24 A3002 RMK AO2 LTG DSNT SW T02870235 10287 20216
KPRG 151735Z AUTO 20005KT 10SM BKN020 BKN060 28/23 A3002 RMK AO2 T02840230
KPRG 151715Z AUTO 23003KT 10SM BKN018 BKN023 BKN060 28/23 A3003 RMK AO2 T02760229
KPRG 151655Z AUTO 18006KT 10SM BKN018 28/23 A3003 RMK AO2 T02750230
KPRG 151635Z AUTO 19006KT 10SM BKN016 27/23 A3002 RMK AO2 T02720226
KPRG 151615Z AUTO 21007KT 10SM BKN016 27/23 A3002 RMK AO2 T02670226
KPRG 151555Z AUTO 17006KT 10SM SCT110 27/23 A3002 RMK AO2 T02660226
KPRG 151535Z AUTO 19007KT 10SM SCT019 SCT037 BKN110 26/22 A3002 RMK AO2 T02570220
KPRG 151515Z AUTO 17003KT 10SM BKN019 OVC037 26/22 A3002 RMK AO2 T02570220
KPRG 151455Z AUTO 15004KT 10SM OVC035 26/22 A3002 RMK AO2 T02580220
KPRG 151435Z AUTO 16005KT 10SM OVC031 25/22 A3002 RMK AO2 T02470217
KPRG 151415Z AUTO 17005KT 10SM OVC031 25/22 A3003 RMK AO2 T02480216
KPRG 151355Z AUTO 16005KT 10SM SCT031 25/22 A3003 RMK AO2 T02530220
KPRG 151335Z AUTO 18004KT 10SM CLR 26/22 A3003 RMK AO2 T02570220
KPRG 151315Z AUTO 18004KT 10SM CLR 25/22 A3003 RMK AO2 T02520223
KPRG 151255Z AUTO 17006KT 10SM CLR 24/22 A3004 RMK AO2 T02420218
KPRG 151235Z AUTO 16004KT 10SM CLR 23/22 A3004 RMK AO2 T02320218
KPRG 151215Z AUTO 14003KT 10SM CLR 23/21 A3004 RMK AO2 LTG DSNT SW T02250214
KPRG 151155Z AUTO 00000KT 7SM SCT085 22/21 A3004 RMK AO2 T02150210 10219 20208
KPRG 151135Z AUTO 00000KT 5SM BR SCT085 21/21 A3004 RMK AO2 T02130208
KPRG 151115Z AUTO 06003KT 4SM BR SCT055 SCT070 BKN110 21/21 A3004 RMK AO2 T02110206
KPRG 151055Z AUTO 00000KT 3SM BR BKN055 BKN070 BKN110 21/20 A3004 RMK AO2 T02080203
KPRG 151035Z AUTO 00000KT 4SM TS BR BKN055 BKN110 21/20 A3003 RMK AO2 LTG DSNT W T02080203
KPRG 151015Z AUTO 00000KT 7SM SCT055 BKN110 21/21 A3003 RMK AO2 T02110205
KPRG 150955Z AUTO 00000KT 7SM BKN055 BKN065 BKN110 21/21 A3002 RMK AO2 LTG DSNT SE T02110205
KPRG 150935Z AUTO 00000KT 7SM BKN065 BKN070 OVC110 21/21 A3002 RMK AO2 LTG DSNT SE AND S T02130206
KPRG 150915Z AUTO 00000KT 7SM TS OVC110 21/21 A3002 RMK AO2 T02130206
KPRG 150855Z AUTO 33003KT 7SM BKN110 21/21 A3003 RMK AO2 LTG DSNT S T02120205
KPRG 150835Z AUTO 00000KT 7SM SCT100 22/21 A3003 RMK AO2 T02150207
KPRG 150815Z AUTO 20005KT 7SM CLR 22/21 A3004 RMK AO2 T02150206
KPRG 150755Z AUTO 22004KT 10SM SCT120 22/21 A3004 RMK AO2 T02150207
KPRG 150735Z AUTO 00000KT 10SM BKN120 22/21 A3002 RMK AO2 T02180208
KPRG 150715Z AUTO 26003KT 10SM SCT120 22/21 A3002 RMK AO2 T02160208
KPRG 150655Z AUTO 00000KT 7SM SCT110 22/21 A3002 RMK AO2 T02150208
KPRG 150635Z AUTO 22003KT 10SM BKN120 22/21 A3003 RMK AO2 T02150208
KPRG 150615Z AUTO 00000KT 7SM BKN110 22/21 A3003 RMK AO2 T02150208
KPRG 150555Z AUTO 00000KT 7SM BKN120 21/21 A3004 RMK AO2 T02140208 10257 20213 403020167
KPRG 150535Z AUTO 00000KT 7SM -DZ SCT095 BKN120 21/21 A3005 RMK AO2 T02140208
KPRG 150515Z AUTO 00000KT 7SM SCT120 22/21 A3005 RMK AO2 T02150210
KPRG 150455Z AUTO 00000KT 10SM SCT120 22/21 A3005 RMK AO2 T02170210
KPRG 150435Z AUTO 00000KT 10SM CLR 22/21 A3005 RMK AO2 T02180210
KPRG 150415Z AUTO 00000KT 7SM CLR 22/21 A3003 RMK AO2 T02170210
KPRG 150355Z AUTO 08003KT 7SM CLR 22/21 A3002 RMK AO2 T02160210
KPRG 150335Z AUTO 00000KT 10SM CLR 22/21 A3002 RMK AO2 T02170210
KPRG 150315Z AUTO 00000KT 10SM CLR 22/21 A3002 RMK AO2 T02180210
KPRG 150255Z AUTO 00000KT 10SM CLR 22/21 A3003 RMK AO2 T02220212
KPRG 150235Z AUTO 00000KT 10SM CLR 23/21 A3004 RMK AO2 T02300212
KPRG 150215Z AUTO 26003KT 10SM CLR 23/21 A3004 RMK AO2 T02310210
KPRG 150155Z AUTO 25005KT 10SM CLR 24/21 A3006 RMK AO2 T02350210
KPRG 150135Z AUTO 27007KT 10SM SCT110 24/21 A3006 RMK AO2 T02400214
KPRG 150115Z AUTO 27008KT 10SM BKN110 25/22 A3007 RMK AO2 LTG DSNT SW AND W T02450219
KPRG 150055Z AUTO 00000KT 7SM SCT120 24/23 A3005 RMK AO2 LTG DSNT S THRU W T02400227
KPRG 150035Z AUTO 00000KT 7SM CLR 24/23 A3004 RMK AO2 LTG DSNT W T02410228
KPRG 150015Z AUTO 00000KT 10SM CLR 25/23 A3003 RMK AO2 LTG DSNT W AND NW T02500227
KPRG 142355Z AUTO 00000KT 10SM CLR 26/23 A3002 RMK AO2 LTG DSNT NW T02560227 10292 20233
KPRG 142335Z AUTO 00000KT 10SM CLR 26/22 A3001 RMK AO2 LTG DSNT W T02610223
KPRG 142315Z AUTO 00000KT 10SM CLR 27/22 A3000 RMK AO2 LTG DSNT W T02660222
KPRG 142255Z AUTO 00000KT 10SM CLR 26/22 A3001 RMK AO2 LTG DSNT W T02610221
KPRG 142235Z AUTO 00000KT 10SM CLR 26/22 A3000 RMK AO2 LTG DSNT W T02590219
KPRG 142220Z AUTO 00000KT 10SM CLR 25/22 A2999 RMK AO2 T02530223
KPRG 142155Z AUTO 00000KT 10SM CLR 25/22 A2999 RMK AO2 LTG DSNT S T02500220
KPRG 142135Z AUTO 14005KT 10SM CLR 24/22 A3001 RMK AO2 LTG DSNT S T02430221
KPRG 142115Z AUTO 00000KT 10SM CLR 24/22 A3001 RMK AO2 LTG DSNT S T02400220
KPRG 142055Z AUTO 00000KT 10SM VCTS CLR 24/22 A3002 RMK AO2 LTG DSNT S T02380222
KPRG 142035Z AUTO 15003KT 10SM VCTS CLR 24/22 A3003 RMK AO2 LTG DSNT S AND SW T02360220
KPRG 142015Z AUTO 13004KT 10SM VCTS CLR 23/22 A3004 RMK AO2 LTG DSNT SW T02340219
KPRG 141955Z AUTO 17004KT 10SM TS SCT110 23/22 A3006 RMK AO2 LTG DSNT ALQS T02330215
KPRG 141935Z AUTO 00000KT 10SM -TSRA SCT080 SCT100 BKN120 24/21 A3005 RMK AO2 LTG DSNT ALQS T02350210
KPRG 141915Z AUTO 09010KT 10SM TS SCT100 BKN120 24/20 A3005 RMK AO2 LTG DSNT NE SW AND NW T02400203
KPRG 141855Z AUTO 33006KT 10SM TS CLR 25/21 A3010 RMK AO2 LTG DSNT SW THRU N T02450209
KPRG 141835Z AUTO 31008KT 10SM TS CLR 25/21 A3012 RMK AO2 LTG DSNT SW THRU NW T02530209
KPRG 141815Z AUTO 00000KT 10SM TS CLR 29/22 A3011 RMK AO2 LTG DSNT SW THRU N T02860218
KPRG 141755Z AUTO 07004KT 10SM CLR 29/22 A3011 RMK AO2 LTG DSNT W AND NW T02930220 10302 20193
KPRG 141735Z AUTO 04005KT 10SM TS CLR 29/22 A3011 RMK AO2 LTG DSNT W THRU N T02910218
KPRG 141715Z AUTO 05010G14KT 010V070 10SM TS CLR 29/22 A3010 RMK AO2 LTG DSNT W AND NW T02850217
KPRG 141655Z AUTO 04008G15KT 10SM CLR 29/21 A3010 RMK AO2 LTG DSNT W THRU N T02850214
KPRG 141635Z AUTO 02010G18KT 10SM TS SCT027 SCT038 BKN065 28/22 A3011 RMK AO2 LTG DSNT W THRU N T02800218
KPRG 141615Z AUTO 35008KT 320V020 10SM TS SCT027 SCT038 BKN065 30/23 A3012 RMK AO2 LTG DSNT W THRU N T02970225
KPRG 141555Z AUTO 00000KT 10SM CLR 30/22 A3012 RMK AO2 LTG DSNT W THRU N T03000221
KPRG 141535Z AUTO 00000KT 10SM VCTS CLR 29/22 A3011 RMK AO2 LTG DSNT W AND NW T02880215
KPRG 141515Z AUTO 00000KT 10SM CLR 29/22 A3010 RMK AO2 LTG DSNT W THRU N T02860216
KPRG 141455Z AUTO 16004KT 10SM CLR 28/23 A3008 RMK AO2 LTG DSNT W AND NW T02810225
KPRG 141435Z AUTO 14003KT 10SM CLR 27/22 A3008 RMK AO2 LTG DSNT NW T02650220
KPRG 141415Z AUTO 12004KT 10SM CLR 25/21 A3008 RMK AO2 LTG DSNT W AND NW T02510212
KPRG 141355Z AUTO 14005KT 10SM CLR 24/21 A3009 RMK AO2 LTG DSNT W AND NW T02370208
KPRG 141335Z AUTO 14005KT 10SM CLR 24/21 A3009 RMK AO2 LTG DSNT W AND NW T02350206
KPRG 141315Z AUTO 14004KT 10SM CLR 23/21 A3009 RMK AO2 LTG DSNT W T02310206
KPRG 141255Z AUTO 15004KT 7SM CLR 23/21 A3010 RMK AO2 LTG DSNT W AND NW T02250205
KPRG 141235Z AUTO 00000KT 7SM CLR 22/20 A3009 RMK AO2 LTG DSNT W T02160198
KPRG 141215Z AUTO 00000KT 7SM CLR 21/19 A3009 RMK AO2 T02080192
KPRG 141155Z AUTO 00000KT 7SM CLR 19/18 A3009 RMK AO2 T01930184 10193 20167
KPRG 141135Z AUTO 10003KT 7SM CLR 19/18 A3009 RMK AO2 T01850177